Time;durP1;ratioP1;P1;durP2;ratioP2;P2;SDS_P1;SDS_P2;PMS_P1;PMS_P2;Temp;Humidity;BMP_temperature;BMP_pressure;BME280_temperature;BME280_humidity;BME280_pressure;Samples;Min_cycle;Max_cycle;Signal;HPM_P1;HPM_P2
2023/12/25 00:00:31;;;;;;;1.00;0.30;;;11.20;94.80;;;;;;4833588;29;20102;-78
2023/12/25 00:07:54;;;;;;;1.90;0.40;;;11.10;94.70;;;;;;4836297;29;20095;-81
2023/12/25 00:11:28;;;;;;;2.13;0.32;;;11.10;94.70;;;;;;4835723;29;20201;-83
2023/12/25 00:13:55;;;;;;;2.10;0.60;;;11.10;94.80;;;;;;4833247;29;20029;-81
2023/12/25 00:20:14;;;;;;;1.63;0.52;;;11.10;94.60;;;;;;4834853;29;20090;-79
2023/12/25 00:23:04;;;;;;;2.63;0.50;;;11.20;94.50;;;;;;4832570;29;20040;-81
2023/12/25 00:30:33;;;;;;;1.77;0.50;;;11.20;94.30;;;;;;4835405;29;20079;-81
2023/12/25 00:37:35;;;;;;;;;;;;;;;;;;;;;
2023/12/25 00:41:30;;;;;;;1.05;0.40;;;11.30;93.80;;;;;;4813435;29;20064;-81
2023/12/25 00:44:46;;;;;;;4.07;0.40;;;11.30;93.70;;;;;;4812288;29;20097;-82
2023/12/25 00:47:12;;;;;;;0.77;0.32;;;11.20;93.60;;;;;;4813605;29;20037;-78
2023/12/25 00:50:05;;;;;;;1.08;0.30;;;11.30;93.60;;;;;;4813734;29;20321;-82
2023/12/25 00:53:14;;;;;;;1.90;0.45;;;11.20;93.50;;;;;;4795588;30;20076;-81
2023/12/25 01:00:05;;;;;;;2.40;0.50;;;11.30;93.20;;;;;;4795397;29;20108;-82
2023/12/25 01:03:16;;;;;;;1.50;0.65;;;11.30;93.10;;;;;;4799314;29;20110;-81
2023/12/25 01:06:34;;;;;;;2.80;0.40;;;11.30;93.20;;;;;;4787731;29;20054;-81
2023/12/25 01:13:18;;;;;;;1.70;0.60;;;11.10;93.20;;;;;;4817839;29;20053;-82
2023/12/25 01:19:30;;;;;;;1.10;0.50;;;11.20;92.90;;;;;;4817529;29;20075;-82
2023/12/25 01:21:56;;;;;;;1.58;0.40;;;11.20;92.80;;;;;;4832221;29;20092;-81
2023/12/25 01:28:10;;;;;;;1.27;0.30;;;11.20;92.80;;;;;;4808516;29;20351;-77
2023/12/25 01:30:36;;;;;;;1.30;0.40;;;11.20;92.50;;;;;;4818602;29;20026;-78
2023/12/25 01:33:21;;;;;;;2.03;0.40;;;11.20;92.40;;;;;;4817698;29;20282;-82
2023/12/25 01:35:46;;;;;;;1.60;0.30;;;11.10;92.60;;;;;;4817067;29;20037;-78
2023/12/25 01:42:14;;;;;;;1.33;0.30;;;10.90;92.60;;;;;;4818573;29;20049;-82
2023/12/25 01:45:11;;;;;;;1.70;0.55;;;10.90;92.90;;;;;;4826538;29;20227;-83
2023/12/25 01:47:37;;;;;;;2.00;0.60;;;10.80;92.70;;;;;;4819998;29;20035;-82
2023/12/25 01:50:14;;;;;;;1.33;0.35;;;10.80;92.80;;;;;;4828331;29;20220;-79
2023/12/25 01:53:46;;;;;;;;;;;;;;;;;;;;;
2023/12/25 01:57:00;;;;;;;0.95;0.35;;;10.90;92.50;;;;;;4854611;29;20044;-82
2023/12/25 01:59:28;;;;;;;1.05;0.30;;;10.80;92.60;;;;;;4853899;29;20074;-78
2023/12/25 02:03:12;;;;;;;3.85;0.55;;;10.80;92.60;;;;;;4834062;29;20229;-82
2023/12/25 02:17:40;;;;;;;1.10;0.28;;;10.50;92.80;;;;;;4762222;30;20223;-79
2023/12/25 02:20:06;;;;;;;1.83;0.40;;;10.50;92.90;;;;;;4743024;30;20067;-79
2023/12/25 02:23:11;;;;;;;2.30;0.40;;;10.60;92.50;;;;;;4744578;30;20048;-81
2023/12/25 02:26:05;;;;;;;0.70;0.22;;;10.70;92.60;;;;;;4744153;30;20116;-79
2023/12/25 02:28:34;;;;;;;2.00;0.60;;;10.60;92.30;;;;;;4725726;30;20071;-79
2023/12/25 02:31:34;;;;;;;1.35;0.32;;;10.60;92.40;;;;;;4744729;30;20039;-81
2023/12/25 03:00:37;;;;;;;1.80;0.40;;;10.50;92.30;;;;;;4693311;30;20316;-81
2023/12/25 03:03:13;;;;;;;1.23;0.30;;;10.60;91.90;;;;;;4692055;30;20061;-80
2023/12/25 03:06:00;;;;;;;1.83;0.40;;;10.60;91.70;;;;;;4691447;30;20046;-82
2023/12/25 03:08:51;;;;;;;1.38;0.30;;;10.60;91.50;;;;;;4719860;30;20055;-81
2023/12/25 03:15:45;;;;;;;1.00;0.35;;;10.70;91.30;;;;;;4757962;30;20226;-82
2023/12/25 03:22:25;;;;;;;1.27;0.30;;;10.50;91.40;;;;;;4761185;30;20035;-82
2023/12/25 03:25:09;;;;;;;1.08;0.40;;;10.30;91.70;;;;;;4785514;29;20049;-80
2023/12/25 03:35:53;;;;;;;1.77;0.40;;;10.20;91.70;;;;;;4816569;29;20026;-78
2023/12/25 03:42:47;;;;;;;1.17;0.35;;;10.10;91.80;;;;;;4816978;29;20068;-83
2023/12/25 03:45:12;;;;;;;1.45;0.30;;;10.00;92.00;;;;;;4826374;29;20174;-79
2023/12/25 03:47:41;;;;;;;2.08;0.40;;;10.20;91.50;;;;;;4833544;29;20038;-81
2023/12/25 03:54:32;;;;;;;1.07;0.83;;;10.20;91.30;;;;;;4778240;30;20042;-80
2023/12/25 04:00:44;;;;;;;1.70;0.30;;;10.10;91.50;;;;;;4793848;24;20073;-80
2023/12/25 04:20:04;;;;;;;1.00;0.30;;;9.60;92.40;;;;;;4875939;29;20024;-81
2023/12/25 04:38:37;;;;;;;1.13;0.40;;;9.70;92.10;;;;;;5757455;23;20139;-81
2023/12/25 04:41:04;;;;;;;0.93;0.40;;;9.50;92.20;;;;;;4872512;29;20105;-80
2023/12/25 04:43:58;;;;;;;2.45;0.40;;;9.70;92.10;;;;;;4889090;29;20099;-83
2023/12/25 05:46:41;;;;;;;0.63;0.20;;;9.70;91.50;;;;;;4884335;29;20033;-83
2023/12/25 05:53:06;;;;;;;0.73;0.35;;;9.70;91.70;;;;;;4892522;29;20288;-82
2023/12/25 06:13:51;;;;;;;1.25;0.38;;;10.00;91.30;;;;;;4891706;29;20059;-82
2023/12/25 06:24:13;;;;;;;1.45;0.40;;;10.20;91.00;;;;;;4833893;29;20135;-82
2023/12/25 06:35:10;;;;;;;1.00;0.28;;;10.20;90.90;;;;;;4797389;29;20034;-83
2023/12/25 06:41:53;;;;;;;3.83;0.50;;;10.40;90.60;;;;;;4745999;30;20100;-81
2023/12/25 06:44:49;;;;;;;1.30;0.20;;;10.40;90.50;;;;;;4728470;30;20036;-81
2023/12/25 06:58:43;;;;;;;1.02;0.30;;;10.20;90.50;;;;;;4778689;30;20375;-77
2023/12/25 07:01:35;;;;;;;1.88;0.40;;;10.10;90.90;;;;;;4778476;30;20052;-79
2023/12/25 07:04:14;;;;;;;1.10;0.30;;;10.10;90.70;;;;;;4751225;30;20052;-80
2023/12/25 07:11:07;;;;;;;;;;;;;;;;;;;;;
2023/12/25 07:13:59;;;;;;;1.23;0.38;;;10.10;90.60;;;;;;4824111;29;20053;-77
2023/12/25 07:16:40;;;;;;;1.17;0.40;;;10.00;90.50;;;;;;4833150;29;20193;-80
2023/12/25 07:19:12;;;;;;;1.35;0.30;;;10.00;90.60;;;;;;4833284;29;20050;-80
2023/12/25 07:21:46;;;;;;;2.38;0.35;;;10.00;90.20;;;;;;4833059;29;20244;-78
2023/12/25 07:24:18;;;;;;;0.88;0.32;;;10.00;90.40;;;;;;4836055;29;20038;-80
2023/12/25 07:26:58;;;;;;;0.88;0.30;;;10.00;90.20;;;;;;4835565;29;20085;-77
2023/12/25 07:29:53;;;;;;;1.48;0.43;;;10.00;90.30;;;;;;4850987;29;20030;-77
2023/12/25 07:32:52;;;;;;;2.08;0.47;;;10.00;90.20;;;;;;4818036;29;20106;-77
2023/12/25 07:35:21;;;;;;;1.88;0.30;;;10.10;90.10;;;;;;4831662;29;20032;-77
2023/12/25 07:37:48;;;;;;;1.02;0.30;;;10.00;90.10;;;;;;4810562;29;20038;-78
2023/12/25 07:40:14;;;;;;;1.35;0.40;;;10.10;90.20;;;;;;4784233;29;20045;-78
2023/12/25 07:42:59;;;;;;;1.27;0.50;;;10.10;90.20;;;;;;4786700;29;20026;-78
2023/12/25 07:45:53;;;;;;;1.55;0.50;;;10.10;90.10;;;;;;4827983;29;20391;-79
2023/12/25 07:48:31;;;;;;;1.73;0.93;;;10.00;90.10;;;;;;4854799;29;20029;-78
2023/12/25 07:51:09;;;;;;;1.02;0.50;;;10.10;90.00;;;;;;4886164;29;20032;-77
2023/12/25 07:54:04;;;;;;;1.77;0.40;;;10.10;90.10;;;;;;4882091;29;20077;-75
2023/12/25 08:01:01;;;;;;;1.88;0.50;;;10.20;89.90;;;;;;4892980;29;20047;-77
2023/12/25 08:03:46;;;;;;;2.20;0.50;;;10.20;89.60;;;;;;4871948;29;20049;-80
2023/12/25 08:07:19;;;;;;;1.15;0.40;;;10.20;89.80;;;;;;4889224;29;20040;-78
2023/12/25 08:10:40;;;;;;;1.63;0.38;;;10.30;89.40;;;;;;4888441;29;20076;-76
2023/12/25 08:13:06;;;;;;;3.13;0.60;;;10.30;89.10;;;;;;4855095;29;20097;-78
2023/12/25 08:15:46;;;;;;;1.30;0.50;;;10.40;89.40;;;;;;4886801;29;20278;-77
2023/12/25 08:18:34;;;;;;;1.30;0.50;;;10.40;89.20;;;;;;4884043;29;20346;-77
2023/12/25 08:20:59;;;;;;;1.85;0.40;;;10.40;89.00;;;;;;4868271;29;20045;-76
2023/12/25 08:49:56;;;;;;;1.80;0.70;;;10.70;89.00;;;;;;4806605;29;20033;-79
2023/12/25 08:52:51;;;;;;;1.77;0.57;;;10.80;89.10;;;;;;4798088;29;20037;-77
2023/12/25 09:03:41;;;;;;;1.92;0.40;;;11.10;88.80;;;;;;4704605;30;20091;-78
2023/12/25 09:13:52;;;;;;;1.13;0.30;;;11.10;89.10;;;;;;4709697;30;20235;-78
2023/12/25 09:17:11;;;;;;;2.28;0.57;;;11.10;89.70;;;;;;4738870;30;20049;-79
2023/12/25 09:23:41;;;;;;;1.75;0.52;;;11.10;90.10;;;;;;4780081;30;20046;-79
2023/12/25 09:26:07;;;;;;;1.83;0.40;;;11.30;90.00;;;;;;4780686;30;20315;-80
2023/12/25 09:29:16;;;;;;;1.13;0.50;;;11.30;89.70;;;;;;4775308;29;20094;-80
2023/12/25 09:32:26;;;;;;;;;;;;;;;;;;;;;
2023/12/25 09:39:15;;;;;;;1.40;0.40;;;11.50;89.90;;;;;;4811871;29;20026;-79
2023/12/25 09:42:05;;;;;;;1.20;0.50;;;11.80;90.00;;;;;;4834127;29;20395;-78
2023/12/25 09:44:50;;;;;;;0.80;0.30;;;11.90;89.20;;;;;;4833846;29;20043;-79
2023/12/25 09:47:35;;;;;;;1.73;0.55;;;11.90;89.60;;;;;;4819347;29;20038;-80
2023/12/25 09:54:08;;;;;;;;;;;;;;;;;;;;;
2023/12/25 09:57:01;;;;;;;3.30;0.50;;;11.90;90.70;;;;;;4833848;29;20079;-78
2023/12/25 09:59:31;;;;;;;1.52;0.40;;;11.90;90.40;;;;;;4804009;29;20091;-77
2023/12/25 10:02:04;;;;;;;1.27;0.47;;;11.90;90.50;;;;;;4803868;29;20160;-76
2023/12/25 10:04:30;;;;;;;1.25;0.50;;;11.90;90.80;;;;;;4832887;29;20054;-77
2023/12/25 10:06:57;;;;;;;1.05;0.25;;;12.00;90.70;;;;;;4833529;29;20105;-74
2023/12/25 10:09:24;;;;;;;2.05;0.60;;;12.10;90.60;;;;;;4857216;29;20314;-75
2023/12/25 10:11:50;;;;;;;1.48;0.50;;;12.00;90.80;;;;;;4875040;29;20034;-76
2023/12/25 10:14:16;;;;;;;1.23;0.40;;;11.90;91.00;;;;;;4872459;29;20049;-75
2023/12/25 10:16:41;;;;;;;0.55;0.22;;;11.80;91.40;;;;;;4871694;29;20084;-76
2023/12/25 10:19:07;;;;;;;0.80;0.30;;;11.80;91.50;;;;;;4855736;29;20034;-75
2023/12/25 10:21:50;;;;;;;2.95;0.50;;;11.80;91.60;;;;;;4871848;29;20149;-76
2023/12/25 10:24:31;;;;;;;1.38;0.50;;;11.80;91.80;;;;;;4872510;29;20060;-77
2023/12/25 10:27:06;;;;;;;0.93;0.30;;;11.80;92.10;;;;;;4872333;29;20062;-76
2023/12/25 10:29:41;;;;;;;2.30;0.40;;;11.90;92.30;;;;;;4858027;29;20045;-75
2023/12/25 10:32:19;;;;;;;1.20;0.40;;;11.90;92.40;;;;;;4855496;29;20069;-75
2023/12/25 10:34:45;;;;;;;1.83;0.40;;;12.10;92.30;;;;;;4871170;29;20061;-76
2023/12/25 10:37:12;;;;;;;0.88;0.30;;;12.20;92.30;;;;;;4872441;29;20236;-76
2023/12/25 10:39:44;;;;;;;0.73;0.20;;;12.10;92.40;;;;;;4878785;29;20080;-77
2023/12/25 10:42:12;;;;;;;1.85;0.32;;;12.10;92.40;;;;;;4890844;29;20033;-75
2023/12/25 10:44:39;;;;;;;3.00;0.40;;;12.30;92.50;;;;;;4888199;29;20038;-76
2023/12/25 10:47:10;;;;;;;2.38;0.40;;;12.40;92.40;;;;;;4873336;29;20114;-75
2023/12/25 10:49:41;;;;;;;0.93;0.32;;;12.60;92.20;;;;;;4858789;29;20045;-76
2023/12/25 10:52:09;;;;;;;1.92;0.30;;;12.80;91.90;;;;;;4890644;29;20045;-75
2023/12/25 10:54:45;;;;;;;1.52;0.40;;;13.10;91.60;;;;;;4889892;29;20021;-76
2023/12/25 10:57:11;;;;;;;1.42;0.30;;;13.40;91.30;;;;;;4890071;29;20145;-77
2023/12/25 10:59:40;;;;;;;1.33;0.40;;;13.60;91.00;;;;;;4888786;29;20056;-75
2023/12/25 11:02:11;;;;;;;1.48;0.57;;;14.00;90.70;;;;;;4878532;29;20275;-75
2023/12/25 11:04:37;;;;;;;0.75;0.20;;;13.90;90.50;;;;;;4861546;29;20056;-75
2023/12/25 11:07:04;;;;;;;1.38;0.30;;;14.10;90.50;;;;;;4889921;29;20334;-78
2023/12/25 11:09:33;;;;;;;1.73;0.20;;;14.20;90.50;;;;;;4873104;29;20057;-75
2023/12/25 11:11:59;;;;;;;0.32;0.15;;;14.40;90.10;;;;;;4889922;29;20036;-76
2023/12/25 11:14:27;;;;;;;1.02;0.30;;;15.00;88.70;;;;;;4888686;29;20033;-77
2023/12/25 11:16:57;;;;;;;0.65;0.20;;;15.40;87.50;;;;;;4890136;29;20025;-76
2023/12/25 11:19:25;;;;;;;1.88;0.32;;;15.20;87.50;;;;;;4859090;29;20065;-76
2023/12/25 11:21:54;;;;;;;1.85;0.20;;;15.40;88.00;;;;;;4870888;29;20064;-78
2023/12/25 11:24:27;;;;;;;0.55;0.20;;;15.60;86.80;;;;;;4871202;29;20033;-78
2023/12/25 11:27:02;;;;;;;0.90;0.28;;;15.40;87.80;;;;;;4871283;29;20312;-78
2023/12/25 11:29:31;;;;;;;1.75;0.30;;;14.90;88.30;;;;;;4854518;29;20030;-78
2023/12/25 11:32:10;;;;;;;0.55;0.20;;;14.40;90.00;;;;;;4870969;29;20292;-76
2023/12/25 11:34:39;;;;;;;0.57;0.20;;;14.40;90.30;;;;;;4869767;29;20067;-75
2023/12/25 11:37:20;;;;;;;0.75;0.20;;;14.40;90.30;;;;;;4889077;29;20321;-74
2023/12/25 11:40:06;;;;;;;2.05;0.20;;;14.50;90.20;;;;;;4872682;29;20120;-75
2023/12/25 11:42:54;;;;;;;0.50;0.10;;;14.50;90.20;;;;;;4889493;29;20037;-76
2023/12/25 11:45:39;;;;;;;0.90;0.20;;;14.60;90.50;;;;;;4871969;29;20029;-75
2023/12/25 11:48:07;;;;;;;1.27;0.20;;;14.60;90.10;;;;;;4889019;29;20041;-75
2023/12/25 11:50:36;;;;;;;;;;;14.40;90.20;;;;;;4887262;29;20135;-74
2023/12/25 11:53:02;;;;;;;1.08;0.25;;;14.30;90.70;;;;;;4884685;29;19982;-72
2023/12/25 11:55:30;;;;;;;0.90;0.28;;;14.30;90.50;;;;;;4888911;29;20069;-75
2023/12/25 11:57:58;;;;;;;0.60;0.20;;;13.90;90.90;;;;;;4893940;29;20052;-73
2023/12/25 12:00:40;;;;;;;1.23;0.30;;;13.80;91.20;;;;;;4872106;29;20085;-75
2023/12/25 12:03:29;;;;;;;0.95;0.20;;;13.60;91.60;;;;;;4889246;29;20092;-75
2023/12/25 12:06:07;;;;;;;1.80;0.28;;;13.50;91.70;;;;;;4855741;29;20093;-79
2023/12/25 12:08:45;;;;;;;1.80;0.20;;;13.50;91.70;;;;;;4904726;29;20318;-77
2023/12/25 12:11:22;;;;;;;0.73;0.20;;;13.30;91.90;;;;;;4903170;29;20055;-78
2023/12/25 12:13:51;;;;;;;1.17;0.40;;;13.20;92.30;;;;;;4896850;29;20288;-77
2023/12/25 12:16:43;;;;;;;1.52;0.30;;;13.10;92.40;;;;;;4885918;29;20064;-78
2023/12/25 12:19:12;;;;;;;1.65;0.60;;;13.10;92.80;;;;;;4918352;29;20025;-76
2023/12/25 12:21:39;;;;;;;1.15;0.30;;;13.10;92.50;;;;;;4906374;29;20103;-79
2023/12/25 12:24:05;;;;;;;0.32;0.10;;;13.00;92.60;;;;;;4890861;29;20032;-78
2023/12/25 12:26:33;;;;;;;1.70;0.40;;;13.10;92.50;;;;;;4862581;29;20029;-78
2023/12/25 12:28:59;;;;;;;0.47;0.20;;;13.20;92.70;;;;;;4887339;29;20088;-77
2023/12/25 12:31:43;;;;;;;0.80;0.20;;;13.00;92.70;;;;;;4888866;29;20021;-79
2023/12/25 12:34:12;;;;;;;0.43;0.17;;;13.00;93.00;;;;;;4887171;29;20029;-76
2023/12/25 12:37:01;;;;;;;1.33;0.30;;;12.80;93.10;;;;;;4888579;29;20056;-79
2023/12/25 12:39:54;;;;;;;0.55;0.20;;;12.80;93.40;;;;;;4872561;29;20133;-79
2023/12/25 12:42:21;;;;;;;0.80;0.20;;;12.80;93.40;;;;;;4872547;29;20029;-79
2023/12/25 12:44:51;;;;;;;1.38;0.30;;;12.80;93.50;;;;;;4875994;29;20138;-77
2023/12/25 12:47:17;;;;;;;0.98;0.20;;;12.80;93.60;;;;;;4853535;29;20100;-76
2023/12/25 12:49:43;;;;;;;2.22;0.40;;;12.70;93.80;;;;;;4873299;29;20326;-78
2023/12/25 12:52:08;;;;;;;0.60;0.20;;;12.70;93.90;;;;;;4870308;29;20029;-76
2023/12/25 12:54:37;;;;;;;1.48;0.30;;;12.80;93.90;;;;;;4886703;29;20044;-77
2023/12/25 12:57:13;;;;;;;0.60;0.20;;;12.80;94.00;;;;;;4873203;29;20073;-78
2023/12/25 13:00:03;;;;;;;1.10;0.38;;;12.90;94.30;;;;;;4882068;29;20047;-77
2023/12/25 13:02:31;;;;;;;;;;;12.90;94.00;;;;;;4865127;29;20125;-77
2023/12/25 13:05:29;;;;;;;0.70;0.30;;;13.00;94.30;;;;;;4879256;29;19911;-77
2023/12/25 13:08:22;;;;;;;0.90;0.28;;;13.00;94.00;;;;;;4801061;29;20100;-75
2023/12/25 13:10:48;;;;;;;1.10;0.30;;;13.10;93.80;;;;;;4797134;29;20030;-78
2023/12/25 13:13:17;;;;;;;1.55;0.32;;;13.30;93.70;;;;;;4854166;29;20260;-77
2023/12/25 13:15:42;;;;;;;1.10;0.30;;;13.40;93.70;;;;;;4886647;29;20021;-77
2023/12/25 13:18:23;;;;;;;1.30;0.40;;;13.40;93.60;;;;;;4873932;29;20245;-76
2023/12/25 13:20:49;;;;;;;0.88;0.38;;;13.40;93.60;;;;;;4852892;29;20029;-77
2023/12/25 13:23:18;;;;;;;1.20;0.40;;;13.40;93.60;;;;;;4852896;29;20335;-76
2023/12/25 13:25:44;;;;;;;1.48;0.30;;;13.30;93.70;;;;;;4869051;29;20211;-76
2023/12/25 13:28:19;;;;;;;1.02;0.40;;;13.10;94.10;;;;;;4855772;29;20041;-76
2023/12/25 13:31:12;;;;;;;1.13;0.30;;;13.10;94.10;;;;;;4884309;29;20036;-77
2023/12/25 13:33:43;;;;;;;1.58;0.45;;;12.90;94.40;;;;;;4870012;29;20257;-76
2023/12/25 13:36:16;;;;;;;1.25;0.30;;;12.90;94.40;;;;;;4888105;29;20044;-75
2023/12/25 13:38:56;;;;;;;1.42;0.50;;;13.00;94.40;;;;;;4887536;29;20045;-75
2023/12/25 13:41:25;;;;;;;0.60;0.30;;;13.00;94.50;;;;;;4871457;29;20029;-75
2023/12/25 13:43:52;;;;;;;2.17;0.82;;;12.80;94.50;;;;;;4887477;29;20220;-74
2023/12/25 13:46:18;;;;;;;0.82;0.20;;;12.80;94.70;;;;;;4888016;29;20025;-73
2023/12/25 13:48:44;;;;;;;0.88;0.20;;;12.70;94.80;;;;;;4887988;29;20037;-74
2023/12/25 13:51:19;;;;;;;0.60;0.20;;;12.60;95.00;;;;;;4870898;29;20037;-76
2023/12/25 13:53:51;;;;;;;0.75;0.10;;;12.50;95.10;;;;;;4886004;29;20316;-77
2023/12/25 13:56:25;;;;;;;2.10;0.30;;;12.60;95.10;;;;;;4871730;29;20041;-77
2023/12/25 13:58:51;;;;;;;1.20;0.35;;;12.60;95.20;;;;;;4871473;29;20052;-77
2023/12/25 14:01:23;;;;;;;1.50;0.35;;;12.60;95.30;;;;;;4871211;29;20033;-75
2023/12/25 14:04:39;;;;;;;1.23;0.32;;;12.40;95.40;;;;;;4901891;29;20081;-77
2023/12/25 14:09:55;;;;;;;2.97;1.20;;;12.40;95.90;;;;;;4870347;29;20090;-77
2023/12/25 14:12:20;;;;;;;3.78;2.85;;;12.40;95.90;;;;;;4871584;29;20049;-78
2023/12/25 14:14:49;;;;;;;1.17;0.30;;;12.40;96.00;;;;;;4872491;29;20078;-80
2023/12/25 14:17:42;;;;;;;1.48;0.57;;;12.40;96.00;;;;;;4871913;29;20028;-78
2023/12/25 14:20:09;;;;;;;0.98;0.30;;;12.30;96.20;;;;;;4871557;29;20033;-79
2023/12/25 14:22:35;;;;;;;0.88;0.30;;;12.30;96.30;;;;;;4870957;29;20057;-80
2023/12/25 14:25:04;;;;;;;0.60;0.17;;;12.30;96.20;;;;;;4875341;29;20024;-80
2023/12/25 14:31:20;;;;;;;0.73;0.22;;;12.20;96.60;;;;;;4872342;29;20060;-78
2023/12/25 14:33:51;;;;;;;1.10;0.30;;;12.20;96.60;;;;;;4870773;29;20089;-80
2023/12/25 14:36:26;;;;;;;0.85;0.20;;;12.20;96.80;;;;;;4855920;29;20312;-78
2023/12/25 14:39:24;;;;;;;1.00;0.30;;;12.20;96.70;;;;;;4870896;29;20033;-77
2023/12/25 14:46:21;;;;;;;1.00;0.30;;;12.10;97.00;;;;;;4882432;29;20081;-78
2023/12/25 14:48:51;;;;;;;0.80;0.20;;;12.00;97.10;;;;;;4869405;29;20386;-80
2023/12/25 14:51:23;;;;;;;1.70;0.40;;;12.10;97.20;;;;;;4889714;29;20029;-78
2023/12/25 14:57:51;;;;;;;1.67;0.35;;;12.00;97.40;;;;;;4887465;29;20037;-79
2023/12/25 15:08:24;;;;;;;1.13;0.40;;;12.00;97.50;;;;;;4833236;29;20049;-79
2023/12/25 15:11:36;;;;;;;1.80;0.52;;;12.00;97.40;;;;;;4816207;29;20071;-77
2023/12/25 15:14:17;;;;;;;1.33;0.45;;;12.00;97.40;;;;;;4816209;29;20039;-74
2023/12/25 15:16:43;;;;;;;2.15;0.68;;;12.00;97.40;;;;;;4835357;29;20045;-76
2023/12/25 15:19:35;;;;;;;1.63;0.60;;;12.00;97.50;;;;;;4817581;29;20050;-77
2023/12/25 15:22:00;;;;;;;1.73;0.52;;;12.00;97.60;;;;;;4812985;29;20038;-76
2023/12/25 15:24:26;;;;;;;1.95;0.60;;;11.90;97.60;;;;;;4832539;29;20079;-74
2023/12/25 15:26:52;;;;;;;2.28;0.85;;;11.90;97.70;;;;;;4816744;29;20270;-76
2023/12/25 15:29:36;;;;;;;1.70;0.55;;;11.90;97.80;;;;;;4817208;29;20240;-75
2023/12/25 15:32:02;;;;;;;2.75;0.90;;;11.80;97.70;;;;;;4817102;29;20324;-76
2023/12/25 15:34:30;;;;;;;1.70;0.93;;;11.80;97.80;;;;;;4825153;29;20042;-74
2023/12/25 15:36:56;;;;;;;1.38;0.60;;;11.80;97.90;;;;;;4832351;29;20086;-74
2023/12/25 15:39:57;;;;;;;2.72;0.85;;;11.80;98.10;;;;;;4842445;29;20240;-75
2023/12/25 15:42:41;;;;;;;2.33;0.80;;;11.70;98.20;;;;;;4870834;29;20052;-75
2023/12/25 15:45:16;;;;;;;7.25;1.13;;;11.70;98.10;;;;;;4854384;29;20037;-77
2023/12/25 15:47:46;;;;;;;4.10;1.08;;;11.60;98.20;;;;;;4869340;29;20034;-75
2023/12/25 15:50:15;;;;;;;2.75;0.60;;;11.60;98.10;;;;;;4882026;29;20068;-77
2023/12/25 15:52:41;;;;;;;2.60;0.70;;;11.50;98.20;;;;;;4872444;29;20237;-77
2023/12/25 15:55:19;;;;;;;3.50;1.25;;;11.50;98.20;;;;;;4888087;29;20037;-77
2023/12/25 15:57:47;;;;;;;2.92;2.15;;;11.40;98.20;;;;;;4888545;29;20085;-74
2023/12/25 16:00:13;;;;;;;5.68;2.85;;;11.50;98.20;;;;;;4872896;29;20371;-76
2023/12/25 16:03:10;;;;;;;2.38;0.93;;;11.40;98.20;;;;;;4872068;29;20346;-78
2023/12/25 16:06:10;;;;;;;7.13;3.17;;;11.30;98.20;;;;;;4885437;29;20033;-77
2023/12/25 16:09:00;;;;;;;4.30;2.00;;;11.30;98.20;;;;;;4860988;29;20469;-77
2023/12/25 16:11:32;;;;;;;2.10;0.80;;;11.30;98.30;;;;;;4886650;29;20052;-76
2023/12/25 16:14:31;;;;;;;1.92;0.73;;;11.30;98.30;;;;;;4879501;29;20053;-78
2023/12/25 16:17:18;;;;;;;2.78;0.93;;;11.30;98.30;;;;;;4834977;29;20044;-77
2023/12/25 16:19:43;;;;;;;1.83;0.55;;;11.30;98.20;;;;;;4834252;29;20309;-78
2023/12/25 16:22:18;;;;;;;1.05;0.50;;;11.20;98.20;;;;;;4819840;29;20113;-78
2023/12/25 16:36:17;;;;;;;1.30;0.50;;;11.20;98.30;;;;;;4815014;29;20039;-77
2023/12/25 16:39:21;;;;;;;3.17;0.90;;;11.30;98.20;;;;;;4834173;29;20330;-78
2023/12/25 16:41:47;;;;;;;1.40;0.45;;;11.30;98.10;;;;;;4820494;29;20438;-77
2023/12/25 16:44:19;;;;;;;2.10;0.50;;;11.30;98.10;;;;;;4831696;29;20093;-79
2023/12/25 16:46:45;;;;;;;1.27;0.50;;;11.30;98.00;;;;;;4815711;29;20053;-78
2023/12/25 16:49:17;;;;;;;1.75;0.40;;;11.30;98.00;;;;;;4870214;29;20312;-77
2023/12/25 16:51:49;;;;;;;1.48;0.60;;;11.20;98.00;;;;;;4888591;29;20037;-80
2023/12/25 16:54:17;;;;;;;1.45;0.60;;;11.20;98.10;;;;;;4872362;29;20021;-78
2023/12/25 16:56:49;;;;;;;1.73;0.50;;;11.20;98.00;;;;;;4871778;29;20036;-76
2023/12/25 16:59:18;;;;;;;1.80;0.63;;;11.20;98.30;;;;;;4871353;29;20029;-76
2023/12/25 17:01:50;;;;;;;3.17;0.57;;;11.10;98.20;;;;;;4869494;29;20045;-75
2023/12/25 17:04:15;;;;;;;2.20;0.50;;;11.10;98.10;;;;;;4868787;29;20091;-77
2023/12/25 17:06:41;;;;;;;2.22;0.50;;;11.10;98.00;;;;;;4869257;29;20045;-76
2023/12/25 17:09:08;;;;;;;2.25;0.60;;;11.20;97.80;;;;;;4869821;29;20033;-76
2023/12/25 17:11:40;;;;;;;2.22;0.50;;;11.20;97.80;;;;;;4869207;29;20044;-74
2023/12/25 17:14:05;;;;;;;2.92;1.05;;;11.20;97.70;;;;;;4862432;29;20028;-76
2023/12/25 17:16:31;;;;;;;1.85;0.70;;;11.10;97.80;;;;;;4875605;29;20037;-76
2023/12/25 17:18:57;;;;;;;1.63;0.50;;;11.10;98.10;;;;;;4870162;29;20022;-74
2023/12/25 17:26:17;;;;;;;;;;;;;;;;;;;;;
2023/12/25 17:29:02;;;;;;;6.03;1.98;;;10.90;98.00;;;;;;4811885;29;20179;-76
2023/12/25 17:31:28;;;;;;;3.25;0.80;;;10.90;98.00;;;;;;4869129;29;20049;-76
2023/12/25 17:34:16;;;;;;;1.42;0.70;;;10.80;98.10;;;;;;4827911;29;20272;-75
2023/12/25 17:36:43;;;;;;;2.67;1.05;;;10.70;98.10;;;;;;4868650;29;20026;-77
2023/12/25 17:40:02;;;;;;;2.60;0.80;;;10.70;98.10;;;;;;4868842;29;20097;-78
2023/12/25 17:43:37;;;;;;;2.13;0.70;;;10.60;98.10;;;;;;4883194;29;20024;-78
2023/12/25 19:10:16;;;;;;;2.03;0.90;;;10.40;96.30;;;;;;4887830;29;20045;-77
2023/12/25 19:13:43;;;;;;;2.00;0.70;;;10.40;96.30;;;;;;4814820;29;20035;-78
2023/12/25 19:20:10;;;;;;;2.90;0.70;;;10.30;96.40;;;;;;4853660;29;20049;-78
2023/12/25 19:23:20;;;;;;;1.83;0.90;;;10.30;96.40;;;;;;4870467;29;20045;-77
2023/12/25 19:26:31;;;;;;;3.10;1.27;;;10.20;96.40;;;;;;4846025;29;20041;-79
2023/12/25 19:33:42;;;;;;;;;;;;;;;;;;;;;
2023/12/25 19:36:29;;;;;;;2.55;0.82;;;10.10;96.30;;;;;;4855321;29;20053;-74
2023/12/25 19:38:55;;;;;;;1.98;0.77;;;10.10;96.20;;;;;;4869667;29;20065;-78
2023/12/25 19:41:21;;;;;;;2.25;0.77;;;10.10;96.20;;;;;;4853855;29;20045;-79
2023/12/25 19:43:46;;;;;;;2.92;1.05;;;10.10;96.10;;;;;;4854030;29;20041;-78
2023/12/25 19:46:12;;;;;;;2.72;0.82;;;10.10;96.10;;;;;;4868793;29;20033;-79
2023/12/25 19:48:38;;;;;;;1.60;0.60;;;10.00;96.10;;;;;;4869281;29;20053;-77
2023/12/25 19:51:04;;;;;;;3.08;0.85;;;10.00;96.10;;;;;;4831524;29;20121;-77
2023/12/25 19:53:30;;;;;;;2.03;0.70;;;10.00;96.00;;;;;;4850575;29;20032;-79
2023/12/25 19:55:56;;;;;;;5.03;1.10;;;10.00;95.90;;;;;;4850985;29;20252;-78
2023/12/25 19:58:21;;;;;;;2.15;0.80;;;10.00;96.00;;;;;;4850531;29;20030;-76
2023/12/25 20:00:47;;;;;;;2.28;1.02;;;10.00;96.00;;;;;;4851037;29;20193;-78
2023/12/25 20:03:13;;;;;;;2.25;0.70;;;10.00;96.00;;;;;;4849927;29;20120;-78
2023/12/25 20:05:41;;;;;;;3.00;0.70;;;10.00;95.90;;;;;;4871775;29;20255;-78
2023/12/25 20:08:07;;;;;;;2.88;1.00;;;10.00;96.00;;;;;;4886076;29;20152;-79
2023/12/25 20:10:33;;;;;;;2.35;0.70;;;10.00;96.00;;;;;;4884047;29;20045;-77
2023/12/25 20:13:04;;;;;;;2.00;0.70;;;9.90;96.00;;;;;;4889104;29;20088;-79
2023/12/25 20:15:31;;;;;;;1.80;0.80;;;9.90;95.90;;;;;;4884543;29;20020;-77
2023/12/25 20:17:59;;;;;;;1.83;0.70;;;9.90;95.90;;;;;;4889280;29;20089;-79
2023/12/25 20:20:25;;;;;;;3.20;0.80;;;9.90;96.00;;;;;;4889204;29;20032;-78
2023/12/25 20:22:51;;;;;;;3.85;1.35;;;9.90;96.00;;;;;;4861616;29;20044;-76
2023/12/25 20:25:17;;;;;;;2.17;0.82;;;10.00;96.00;;;;;;4869386;29;20036;-78
2023/12/25 20:27:42;;;;;;;3.60;0.90;;;10.00;95.90;;;;;;4872393;29;20048;-79
2023/12/25 20:30:09;;;;;;;4.40;1.00;;;10.00;95.70;;;;;;4870211;29;20287;-77
2023/12/25 20:32:35;;;;;;;2.70;0.60;;;10.00;95.60;;;;;;4889155;29;20272;-76
2023/12/25 20:35:00;;;;;;;3.38;0.80;;;10.00;95.50;;;;;;4889070;29;20036;-75
2023/12/25 20:37:30;;;;;;;2.53;1.02;;;10.10;95.30;;;;;;4888567;29;20039;-77
2023/12/25 20:39:58;;;;;;;2.35;0.60;;;10.20;95.20;;;;;;4872895;29;20040;-79
2023/12/25 20:42:24;;;;;;;3.07;0.90;;;10.20;95.10;;;;;;4889057;29;20315;-78
2023/12/25 20:44:49;;;;;;;3.05;1.10;;;10.10;95.20;;;;;;4888398;29;20422;-78
2023/12/25 20:47:16;;;;;;;2.30;0.73;;;10.20;95.20;;;;;;4873350;29;20041;-79
2023/12/25 20:49:41;;;;;;;2.50;0.60;;;10.10;95.20;;;;;;4872093;29;20033;-78
2023/12/25 20:52:07;;;;;;;3.55;0.80;;;10.20;95.10;;;;;;4889161;29;20253;-76
2023/12/25 20:54:35;;;;;;;3.10;0.85;;;10.20;95.10;;;;;;4856511;29;20029;-78
2023/12/25 20:57:02;;;;;;;2.47;0.88;;;10.10;95.00;;;;;;4888840;29;20033;-78
2023/12/25 20:59:29;;;;;;;2.67;0.70;;;10.10;95.00;;;;;;4870278;29;20028;-76
2023/12/25 21:01:58;;;;;;;1.88;0.60;;;10.10;94.90;;;;;;4881696;29;20033;-76
2023/12/25 21:04:24;;;;;;;3.65;0.80;;;10.10;94.90;;;;;;4878101;29;20080;-76
2023/12/25 21:06:49;;;;;;;2.78;0.90;;;10.10;95.00;;;;;;4854620;29;20061;-77
2023/12/25 21:09:15;;;;;;;4.40;0.70;;;10.10;95.00;;;;;;4880268;29;20352;-75
2023/12/25 21:11:41;;;;;;;2.13;0.73;;;10.00;95.00;;;;;;4868500;29;20026;-76